createdAt,value
2023-02-06T00:01:30.253Z,15.25
2023-02-06T00:03:57.617Z,16.70
2023-02-06T00:06:24.951Z,16.95
2023-02-06T00:08:52.299Z,18.20
2023-02-06T00:11:21.248Z,14.77
2023-02-06T00:13:48.662Z,14.73
2023-02-06T00:16:17.234Z,16.50
2023-02-06T00:18:44.698Z,15.65
2023-02-06T00:21:12.136Z,18.20
2023-02-06T00:23:39.134Z,16.20
2023-02-06T00:26:07.668Z,16.45
2023-02-06T00:28:34.632Z,16.20
2023-02-06T00:31:01.569Z,16.70
2023-02-06T00:33:28.526Z,16.25
2023-02-06T00:35:55.874Z,16.42
2023-02-06T00:38:23.188Z,16.40
2023-02-06T00:40:50.597Z,15.77
2023-02-06T00:43:17.492Z,17.35
2023-02-06T00:45:44.817Z,16.88
2023-02-06T00:48:16.436Z,17.52
2023-02-06T00:50:43.589Z,17.45
2023-02-06T00:53:10.808Z,16.60
2023-02-06T00:55:37.740Z,17.00
2023-02-06T00:58:04.635Z,17.02
2023-02-06T01:00:31.888Z,17.05
2023-02-06T01:02:59.374Z,17.65
2023-02-06T01:05:26.793Z,16.45
2023-02-06T01:07:53.746Z,16.98
2023-02-06T01:10:21.079Z,16.92
2023-02-06T01:12:48.135Z,16.75
2023-02-06T01:15:15.256Z,16.30
2023-02-06T01:17:42.498Z,16.02
2023-02-06T01:20:14.278Z,17.02
2023-02-06T01:22:41.646Z,15.50
2023-02-06T01:25:09.227Z,15.50
2023-02-06T01:27:38.005Z,15.68
2023-02-06T01:30:07.186Z,16.85
2023-02-06T01:32:41.294Z,15.68
2023-02-06T01:35:09.998Z,15.93
2023-02-06T01:37:37.246Z,16.90
2023-02-06T01:40:06.977Z,16.48
2023-02-06T01:42:40.258Z,16.05
2023-02-06T01:45:26.026Z,14.93
2023-02-06T01:47:57.147Z,15.73
2023-02-06T01:50:24.683Z,14.45
2023-02-06T01:52:52.079Z,15.27
2023-02-06T01:55:19.510Z,14.35
2023-02-06T01:57:46.862Z,15.13
2023-02-06T02:00:14.088Z,14.05
2023-02-06T02:02:45.290Z,14.05
2023-02-06T02:05:13.184Z,16.40
2023-02-06T02:07:51.115Z,14.70
2023-02-06T02:10:18.451Z,14.30
2023-02-06T02:12:45.366Z,14.48
2023-02-06T02:15:12.802Z,14.32
2023-02-06T02:18:24.943Z,13.82
2023-02-06T02:20:59.978Z,14.02
2023-02-06T02:23:40.857Z,15.63
2023-02-06T02:26:52.689Z,14.23
2023-02-06T02:29:27.986Z,14.23
2023-02-06T02:32:19.067Z,14.25
2023-02-06T02:34:45.906Z,13.43
2023-02-06T02:38:01.589Z,13.88
2023-02-06T02:41:09.840Z,14.45
2023-02-06T02:43:57.289Z,14.27
2023-02-06T02:46:34.927Z,13.75
2023-02-06T02:49:07.476Z,13.23
2023-02-06T02:51:36.597Z,12.50
2023-02-06T02:54:04.057Z,12.98
2023-02-06T02:56:33.579Z,13.35
2023-02-06T02:59:07.811Z,14.00
2023-02-06T03:01:52.745Z,12.43
2023-02-06T03:04:25.297Z,13.48
2023-02-06T03:07:31.215Z,13.25
2023-02-06T03:10:29.977Z,12.10
2023-02-06T03:13:20.236Z,12.70
2023-02-06T03:16:21.609Z,14.50
2023-02-06T03:19:01.237Z,13.32
2023-02-06T03:21:29.419Z,13.63
2023-02-06T03:23:59.888Z,12.23
2023-02-06T03:29:01.103Z,12.40
2023-02-06T03:31:52.441Z,13.07
2023-02-06T03:34:25.397Z,12.30
2023-02-06T03:36:53.476Z,13.13
2023-02-06T03:39:21.529Z,12.18
2023-02-06T03:41:49.697Z,13.48
2023-02-06T03:44:24.972Z,13.25
2023-02-06T03:46:54.461Z,12.93
2023-02-06T03:49:25.445Z,13.93
2023-02-06T03:52:01.860Z,12.88
2023-02-06T03:54:29.584Z,14.32
2023-02-06T03:57:04.739Z,14.10
2023-02-06T03:59:32.627Z,14.05
2023-02-06T04:02:02.637Z,13.45
2023-02-06T04:04:36.897Z,13.90
2023-02-06T04:07:28.451Z,13.48
2023-02-06T04:09:55.888Z,12.57
2023-02-06T04:12:23.612Z,12.38
2023-02-06T04:14:51.025Z,14.57
2023-02-06T04:17:32.628Z,13.50
2023-02-06T04:20:06.490Z,12.32
2023-02-06T04:22:33.687Z,13.93
2023-02-06T04:25:01.207Z,14.75
2023-02-06T04:27:28.192Z,12.80
2023-02-06T04:29:55.554Z,12.75
2023-02-06T04:32:22.895Z,13.48
2023-02-06T04:34:50.238Z,12.63
2023-02-06T04:37:17.519Z,12.68
2023-02-06T04:39:44.989Z,12.65
2023-02-06T04:42:12.313Z,12.95
2023-02-06T04:44:39.587Z,11.93
2023-02-06T04:47:06.989Z,12.18
2023-02-06T04:49:34.227Z,10.57
2023-02-06T04:52:01.122Z,11.55
2023-02-06T04:54:28.469Z,10.98
2023-02-06T04:56:55.963Z,10.68
2023-02-06T04:59:23.401Z,10.52
2023-02-06T05:01:50.510Z,9.95
2023-02-06T05:04:17.369Z,9.85
2023-02-06T05:06:44.311Z,10.15
2023-02-06T05:09:11.250Z,10.50
2023-02-06T05:11:38.209Z,10.13
2023-02-06T05:14:05.192Z,10.85
2023-02-06T05:16:32.493Z,10.52
2023-02-06T05:18:59.588Z,9.35
2023-02-06T05:21:27.233Z,10.95
2023-02-06T05:23:54.705Z,10.23
2023-02-06T05:26:21.774Z,9.23
2023-02-06T05:28:48.683Z,8.40
2023-02-06T05:31:19.790Z,7.68
2023-02-06T05:33:51.847Z,8.57
2023-02-06T05:36:25.050Z,7.93
2023-02-06T05:38:57.527Z,7.60
2023-02-06T05:41:33.740Z,7.97
2023-02-06T05:44:04.679Z,8.20
2023-02-06T05:46:40.669Z,7.65
2023-02-06T05:49:25.774Z,8.20
2023-02-06T05:52:01.990Z,7.80
2023-02-06T05:57:37.437Z,8.48
2023-02-06T06:00:42.638Z,7.80
2023-02-06T06:03:19.994Z,8.52
2023-02-06T06:06:01.860Z,7.88
2023-02-06T06:08:42.553Z,8.18
2023-02-06T06:11:48.521Z,8.27
2023-02-06T06:14:26.147Z,8.32
2023-02-06T06:19:40.419Z,7.88
2023-02-06T06:22:26.156Z,7.88
2023-02-06T06:25:15.634Z,8.50
2023-02-06T06:28:01.420Z,8.55
2023-02-06T06:30:43.490Z,8.65
2023-02-06T06:33:15.964Z,7.53
2023-02-06T06:35:55.469Z,8.35
2023-02-06T06:38:40.353Z,9.25
2023-02-06T06:41:28.661Z,9.02
2023-02-06T06:44:42.711Z,8.55
2023-02-06T06:47:15.947Z,8.98
2023-02-06T06:49:46.571Z,8.27
2023-02-06T06:52:24.915Z,8.77
2023-02-06T06:55:05.023Z,7.53
2023-02-06T06:57:45.214Z,8.00
2023-02-06T07:00:16.459Z,7.53
2023-02-06T07:02:51.933Z,8.68
2023-02-06T07:05:27.110Z,9.73
2023-02-06T07:08:01.816Z,9.35
2023-02-06T07:11:01.761Z,10.20
2023-02-06T07:13:43.583Z,8.60
2023-02-06T07:16:15.344Z,7.88
2023-02-06T07:18:57.984Z,8.35
2023-02-06T07:21:41.136Z,8.07
2023-02-06T07:24:21.545Z,8.43
2023-02-06T07:26:59.509Z,8.45
2023-02-06T07:29:36.713Z,7.15
2023-02-06T07:32:17.716Z,7.05
2023-02-06T07:34:51.904Z,8.73
2023-02-06T07:37:26.166Z,7.30
2023-02-06T07:40:04.600Z,6.70
2023-02-06T07:42:43.636Z,7.60
2023-02-06T07:45:29.962Z,7.28
2023-02-06T07:48:02.651Z,7.22
2023-02-06T07:50:40.980Z,8.15
2023-02-06T07:53:17.469Z,8.10
2023-02-06T07:55:55.388Z,7.72
2023-02-06T07:58:54.814Z,6.57
2023-02-06T08:01:42.644Z,7.25
2023-02-06T08:16:58.670Z,7.95
2023-02-06T08:19:25.817Z,7.47
2023-02-06T08:21:52.903Z,6.60
2023-02-06T08:24:20.193Z,6.55
2023-02-06T08:26:47.033Z,7.65
2023-02-06T08:29:14.419Z,7.75
2023-02-06T08:31:42.760Z,7.32
2023-02-06T08:34:13.040Z,6.53
2023-02-06T08:39:08.190Z,6.00
2023-02-06T08:41:37.821Z,7.07
2023-02-06T08:44:07.379Z,6.63
2023-02-06T08:46:35.342Z,5.93
2023-02-06T08:49:08.605Z,6.93
2023-02-06T08:51:36.830Z,6.28
2023-02-06T08:54:06.449Z,6.13
2023-02-06T08:56:34.746Z,7.30
2023-02-06T08:59:02.386Z,6.47
2023-02-06T09:01:33.629Z,6.97
2023-02-06T09:04:03.917Z,7.20
2023-02-06T09:08:57.762Z,7.10
2023-02-06T09:11:26.396Z,7.50
2023-02-06T09:13:56.366Z,8.85
2023-02-06T09:16:24.390Z,5.72
2023-02-06T09:18:54.184Z,5.43
2023-02-06T09:21:25.586Z,5.82
2023-02-06T09:23:55.482Z,5.65
2023-02-06T09:26:29.132Z,5.53
2023-02-06T09:28:58.190Z,5.72
2023-02-06T09:31:26.363Z,6.40
2023-02-06T09:33:54.022Z,5.72
2023-02-06T09:36:21.953Z,5.90
2023-02-06T09:38:53.776Z,6.40
2023-02-06T09:41:40.462Z,6.22
2023-02-06T09:44:10.406Z,4.97
2023-02-06T09:46:46.928Z,5.03
2023-02-06T09:49:31.655Z,5.05
2023-02-06T09:52:04.066Z,6.80
2023-02-06T09:55:06.000Z,4.47
2023-02-06T09:57:45.902Z,5.32
2023-02-06T10:00:37.599Z,5.50
2023-02-06T10:03:25.671Z,5.22
2023-02-06T10:06:17.847Z,5.63
2023-02-06T10:09:05.976Z,6.00
2023-02-06T10:11:59.615Z,6.03
2023-02-06T10:14:46.757Z,8.00
2023-02-06T10:17:27.134Z,5.63
2023-02-06T10:23:15.929Z,4.43
2023-02-06T10:25:49.766Z,7.50
2023-02-06T10:28:27.088Z,5.38
2023-02-06T10:31:07.559Z,5.43
2023-02-06T10:34:06.459Z,5.43
2023-02-06T10:36:40.793Z,5.20
2023-02-06T10:39:32.895Z,6.55
2023-02-06T10:42:14.767Z,6.32
2023-02-06T10:45:20.279Z,5.95
2023-02-06T10:47:56.164Z,4.90
2023-02-06T10:50:30.749Z,6.00
2023-02-06T10:53:01.823Z,5.85
2023-02-06T10:55:44.577Z,6.00
2023-02-06T10:58:19.093Z,5.22
2023-02-06T11:00:49.340Z,5.88
2023-02-06T11:05:46.697Z,5.70
2023-02-06T11:08:13.501Z,5.85
2023-02-06T11:10:40.959Z,5.88
2023-02-06T11:13:33.203Z,5.80
2023-02-06T11:16:02.782Z,6.18
2023-02-06T11:18:39.552Z,5.95
2023-02-06T11:21:09.282Z,6.53
2023-02-06T11:23:36.500Z,6.60
2023-02-06T11:26:13.997Z,5.68
2023-02-06T11:34:31.051Z,5.50
2023-02-06T11:37:53.598Z,4.25
2023-02-06T11:40:32.516Z,5.55
2023-02-06T11:43:21.089Z,5.47
2023-02-06T11:45:52.526Z,5.00
2023-02-06T11:48:39.329Z,5.18
2023-02-06T11:55:21.766Z,5.07
2023-02-06T11:58:20.920Z,5.47
2023-02-06T12:00:56.703Z,5.60
2023-02-06T12:03:32.648Z,5.18
2023-02-06T12:06:11.419Z,5.25
2023-02-06T12:08:47.482Z,4.07
2023-02-06T12:11:49.280Z,5.13
2023-02-06T12:14:54.317Z,5.28
2023-02-06T12:17:31.056Z,4.28
2023-02-06T12:20:05.045Z,5.20
2023-02-06T12:22:39.422Z,4.28
2023-02-06T12:25:35.686Z,4.90
2023-02-06T12:28:26.014Z,4.43
2023-02-06T12:31:02.398Z,3.78
2023-02-06T12:33:58.077Z,4.18
2023-02-06T12:37:04.818Z,3.85
2023-02-06T12:39:35.300Z,4.07
2023-02-06T12:42:23.960Z,3.70
2023-02-06T12:45:22.768Z,4.68
2023-02-06T12:48:14.879Z,4.93
2023-02-06T12:50:51.448Z,5.70
2023-02-06T12:53:43.029Z,4.13
2023-02-06T12:56:10.328Z,4.57
2023-02-06T12:58:47.246Z,5.85
2023-02-06T13:01:41.941Z,5.10
2023-02-06T13:04:36.001Z,4.47
2023-02-06T13:10:31.243Z,4.03
2023-02-06T13:12:59.847Z,4.95
2023-02-06T13:15:31.972Z,4.75
2023-02-06T13:18:00.039Z,5.53
2023-02-06T13:20:27.379Z,4.80
2023-02-06T13:23:21.380Z,5.32
2023-02-06T13:25:49.051Z,5.53
2023-02-06T13:28:22.155Z,5.50
2023-02-06T13:30:58.903Z,5.78
2023-02-06T13:33:37.926Z,5.10
2023-02-06T13:36:15.693Z,5.03
2023-02-06T13:38:43.620Z,5.93
2023-02-06T13:41:16.140Z,5.50
2023-02-06T13:43:51.363Z,5.22
2023-02-06T13:46:21.870Z,5.82
2023-02-06T13:48:51.460Z,5.43
2023-02-06T13:51:36.412Z,5.82
2023-02-06T13:54:15.208Z,5.88
2023-02-06T13:57:33.023Z,6.32
2023-02-06T14:00:15.857Z,6.07
2023-02-06T14:02:49.675Z,6.15
2023-02-06T14:05:20.854Z,5.65
2023-02-06T14:07:59.631Z,5.30
2023-02-06T14:10:57.201Z,5.45
2023-02-06T14:13:39.372Z,5.38
2023-02-06T14:16:25.883Z,6.25
2023-02-06T14:19:08.916Z,6.30
2023-02-06T14:21:55.894Z,5.63
2023-02-06T14:24:35.199Z,5.25
2023-02-06T14:27:17.178Z,5.20
2023-02-06T14:29:49.881Z,5.80
2023-02-06T14:32:32.625Z,5.03
2023-02-06T14:35:27.485Z,4.70
2023-02-06T14:38:13.153Z,4.97
2023-02-06T14:40:42.811Z,3.83
2023-02-06T14:43:22.246Z,4.25
2023-02-06T14:46:08.591Z,5.07
2023-02-06T14:49:16.990Z,4.05
2023-02-06T14:51:58.647Z,5.80
2023-02-06T14:54:52.033Z,4.40
2023-02-06T14:57:40.337Z,4.30
2023-02-06T15:00:21.333Z,5.15
2023-02-06T15:06:42.363Z,3.67
2023-02-06T15:16:15.324Z,4.00
2023-02-06T15:19:04.898Z,4.82
2023-02-06T15:21:44.015Z,4.22
2023-02-06T15:28:26.593Z,5.18
2023-02-06T15:31:31.975Z,4.45
2023-02-06T15:34:14.029Z,3.53
2023-02-06T15:37:02.159Z,2.97
2023-02-06T15:45:56.299Z,3.08
2023-02-06T15:48:54.388Z,3.10
2023-02-06T15:52:57.937Z,3.17
2023-02-06T15:56:38.889Z,3.22
2023-02-06T15:59:28.055Z,3.50
2023-02-06T16:01:58.716Z,3.40
2023-02-06T16:04:42.607Z,3.22
2023-02-06T16:07:33.898Z,3.85
2023-02-06T16:10:52.598Z,4.18
2023-02-06T16:13:26.513Z,4.13
2023-02-06T16:16:18.855Z,3.83
2023-02-06T16:18:52.175Z,4.15
2023-02-06T16:21:26.933Z,3.58
2023-02-06T16:23:58.100Z,3.88
2023-02-06T16:26:32.322Z,3.75
2023-02-06T16:29:15.206Z,3.78
2023-02-06T16:31:54.061Z,3.83
2023-02-06T16:34:42.097Z,5.70
2023-02-06T16:37:17.892Z,5.55
2023-02-06T16:39:45.678Z,4.20
2023-02-06T16:42:15.722Z,3.30
2023-02-06T16:45:00.201Z,4.70
2023-02-06T16:47:27.867Z,3.70
2023-02-06T16:49:57.902Z,3.45
2023-02-06T16:52:35.206Z,2.88
2023-02-06T16:55:06.861Z,3.13
2023-02-06T16:57:54.324Z,3.10
2023-02-06T17:00:32.091Z,3.88
2023-02-06T17:03:06.147Z,4.03
2023-02-06T17:05:42.088Z,4.75
2023-02-06T17:08:21.719Z,3.50
2023-02-06T17:10:49.312Z,4.05
2023-02-06T17:13:22.187Z,4.25
2023-02-06T17:15:52.193Z,4.38
2023-02-06T17:18:21.403Z,3.95
2023-02-06T17:20:52.735Z,4.78
2023-02-06T17:23:20.281Z,3.88
2023-02-06T17:25:47.183Z,3.47
2023-02-06T17:28:16.798Z,3.90
2023-02-06T17:30:44.327Z,4.63
2023-02-06T17:33:11.260Z,5.32
2023-02-06T17:35:38.628Z,5.68
2023-02-06T17:38:07.627Z,5.13
2023-02-06T17:40:39.119Z,5.28
2023-02-06T17:43:07.129Z,4.60
2023-02-06T17:45:37.231Z,4.72
2023-02-06T17:50:31.886Z,4.30
2023-02-06T17:53:00.317Z,4.60
2023-02-06T17:55:28.188Z,4.00
2023-02-06T17:57:55.518Z,5.35
2023-02-06T18:00:24.028Z,5.55
2023-02-06T18:02:52.392Z,5.05
2023-02-06T18:05:19.968Z,4.93
2023-02-06T18:07:49.546Z,4.50
2023-02-06T18:10:18.070Z,4.97
2023-02-06T18:12:45.303Z,4.72
2023-02-06T18:15:14.099Z,4.53
2023-02-06T18:17:42.443Z,5.70
2023-02-06T18:20:11.388Z,5.70
2023-02-06T18:22:41.278Z,5.95
2023-02-06T18:27:38.318Z,4.72
2023-02-06T18:30:06.270Z,5.07
2023-02-06T18:32:34.227Z,4.82
2023-02-06T18:35:01.150Z,4.70
2023-02-06T18:37:30.315Z,6.80
2023-02-06T18:40:02.080Z,5.65
2023-02-06T18:42:58.030Z,4.47
2023-02-06T18:46:27.908Z,4.45
2023-02-06T18:48:52.392Z,4.57
2023-02-06T18:58:54.593Z,3.20
2023-02-06T19:01:31.092Z,3.85
2023-02-06T19:04:28.465Z,3.72
2023-02-06T19:07:16.372Z,3.80
2023-02-06T19:10:22.288Z,3.55
2023-02-06T19:13:14.790Z,3.05
2023-02-06T19:15:44.436Z,3.45
2023-02-06T19:18:14.283Z,2.85
2023-02-06T19:20:51.029Z,3.15
2023-02-06T19:23:18.778Z,2.78
2023-02-06T19:25:46.124Z,3.03
2023-02-06T19:28:13.612Z,3.20
2023-02-06T19:30:50.486Z,2.60
2023-02-06T19:33:20.078Z,2.22
2023-02-06T19:35:47.420Z,2.42
2023-02-06T19:38:15.055Z,3.17
2023-02-06T19:40:46.951Z,2.67
2023-02-06T19:43:15.220Z,2.60
2023-02-06T19:45:42.615Z,2.33
2023-02-06T19:48:13.166Z,2.45
2023-02-06T19:50:41.893Z,2.33
2023-02-06T19:53:16.873Z,2.35
2023-02-06T19:55:51.579Z,2.28
2023-02-06T19:58:20.593Z,1.88
2023-02-06T20:00:58.166Z,1.98
2023-02-06T20:03:27.521Z,2.28
2023-02-06T20:05:55.016Z,2.03
2023-02-06T20:08:24.660Z,2.22
2023-02-06T20:10:55.559Z,2.50
2023-02-06T20:13:23.617Z,2.50
2023-02-06T20:15:53.368Z,2.20
2023-02-06T20:18:20.854Z,3.00
2023-02-06T20:20:50.826Z,3.15
2023-02-06T20:23:20.624Z,3.72
2023-02-06T20:25:48.348Z,2.70
2023-02-06T20:28:26.517Z,2.17
2023-02-06T20:30:56.743Z,2.47
2023-02-06T20:33:35.241Z,2.45
2023-02-06T20:36:10.034Z,2.58
2023-02-06T20:38:37.830Z,2.13
2023-02-06T20:41:06.753Z,2.03
2023-02-06T20:43:37.307Z,2.30
2023-02-06T20:46:06.941Z,2.65
2023-02-06T20:48:45.630Z,2.83
2023-02-06T20:51:21.275Z,2.85
2023-02-06T20:53:48.829Z,2.47
2023-02-06T20:56:23.600Z,2.60
2023-02-06T20:58:53.844Z,2.55
2023-02-06T21:01:23.372Z,2.72
2023-02-06T21:04:19.349Z,2.20
2023-02-06T21:06:48.520Z,2.72
2023-02-06T21:09:15.994Z,2.53
2023-02-06T21:11:51.118Z,2.58
2023-02-06T21:14:19.555Z,2.10
2023-02-06T21:16:46.949Z,2.38
2023-02-06T21:19:16.231Z,1.80
2023-02-06T21:21:45.943Z,2.20
2023-02-06T21:24:17.176Z,2.03
2023-02-06T21:26:44.549Z,1.70
2023-02-06T21:29:14.060Z,1.95
2023-02-06T21:31:46.162Z,1.90
2023-02-06T21:34:18.139Z,1.80
2023-02-06T21:36:45.861Z,1.77
2023-02-06T21:39:26.827Z,1.90
2023-02-06T21:41:54.119Z,1.50
2023-02-06T21:44:26.389Z,2.03
2023-02-06T21:47:00.459Z,2.20
2023-02-06T21:49:27.925Z,2.33
2023-02-06T21:52:04.592Z,2.10
2023-02-06T21:54:34.558Z,2.53
2023-02-06T21:57:04.941Z,2.42
2023-02-06T21:59:37.974Z,2.03
2023-02-06T22:02:05.598Z,2.10
2023-02-06T22:04:32.860Z,1.83
2023-02-06T22:07:00.176Z,1.92
2023-02-06T22:09:30.618Z,2.40
2023-02-06T22:11:58.339Z,2.30
2023-02-06T22:14:28.023Z,2.78
2023-02-06T22:16:57.939Z,2.40
2023-02-06T22:19:27.616Z,3.38
2023-02-06T22:21:55.002Z,3.22
2023-02-06T22:24:22.277Z,2.65
2023-02-06T22:26:52.548Z,3.53
2023-02-06T22:31:49.573Z,3.55
2023-02-06T22:36:44.967Z,3.30
2023-02-06T22:39:15.218Z,3.28
2023-02-06T22:41:45.920Z,3.33
2023-02-06T22:44:16.502Z,3.55
2023-02-06T22:46:51.952Z,3.70
2023-02-06T22:49:21.975Z,3.42
2023-02-06T22:51:49.284Z,3.58
2023-02-06T22:54:19.309Z,3.65
2023-02-06T22:56:46.985Z,2.80
2023-02-06T22:59:18.939Z,3.70
2023-02-06T23:01:48.968Z,4.00
2023-02-06T23:04:24.108Z,3.70
2023-02-06T23:06:51.568Z,3.88
2023-02-06T23:09:24.922Z,4.85
2023-02-06T23:11:52.647Z,5.18
2023-02-06T23:14:22.020Z,4.38
2023-02-06T23:16:49.466Z,5.17
2023-02-06T23:19:20.179Z,5.28
2023-02-06T23:21:48.859Z,5.28
2023-02-06T23:24:16.459Z,5.13
2023-02-06T23:26:45.760Z,5.30
2023-02-06T23:29:17.888Z,5.13
2023-02-06T23:31:49.156Z,5.60
2023-02-06T23:34:18.058Z,6.30
2023-02-06T23:36:47.648Z,6.10
2023-02-06T23:39:15.138Z,5.78
2023-02-06T23:41:42.451Z,6.10
2023-02-06T23:44:10.714Z,7.28
2023-02-06T23:46:39.683Z,6.15
2023-02-06T23:49:07.081Z,4.68
2023-02-06T23:51:35.153Z,5.07
2023-02-06T23:54:02.784Z,4.88
2023-02-06T23:56:31.238Z,5.20
2023-02-06T23:58:59.321Z,5.68
